sensor_id;sensor_type;location;lat;lon;timestamp;pressure;altitude;pressure_sealevel;temperature;humidity
25420;BME280;13354;48.174;11.566;2023-03-13T00:00:28;95403.84;;;8.41;74.08
25420;BME280;13354;48.174;11.566;2023-03-13T00:02:53;95401.22;;;8.27;74.22
25420;BME280;13354;48.174;11.566;2023-03-13T00:05:18;95400.31;;;8.19;73.89
25420;BME280;13354;48.174;11.566;2023-03-13T00:07:43;95390.00;;;8.24;73.86
25420;BME280;13354;48.174;11.566;2023-03-13T00:10:09;95391.03;;;8.23;73.83
25420;BME280;13354;48.174;11.566;2023-03-13T00:12:34;95386.22;;;8.12;73.97
25420;BME280;13354;48.174;11.566;2023-03-13T00:14:59;95374.50;;;8.15;73.79
25420;BME280;13354;48.174;11.566;2023-03-13T00:17:24;95372.03;;;8.13;73.64
25420;BME280;13354;48.174;11.566;2023-03-13T00:19:49;95380.34;;;8.10;73.48
25420;BME280;13354;48.174;11.566;2023-03-13T00:22:15;95375.59;;;8.06;73.71
25420;BME280;13354;48.174;11.566;2023-03-13T00:24:40;95373.31;;;8.03;73.54
25420;BME280;13354;48.174;11.566;2023-03-13T00:27:05;95374.31;;;8.02;73.62
25420;BME280;13354;48.174;11.566;2023-03-13T00:29:31;95364.53;;;7.95;73.40
25420;BME280;13354;48.174;11.566;2023-03-13T00:31:57;95366.31;;;7.95;73.55
25420;BME280;13354;48.174;11.566;2023-03-13T00:34:22;95355.25;;;7.99;73.63
25420;BME280;13354;48.174;11.566;2023-03-13T00:36:50;95359.88;;;7.97;73.73
25420;BME280;13354;48.174;11.566;2023-03-13T00:39:15;95360.16;;;7.88;73.37
25420;BME280;13354;48.174;11.566;2023-03-13T00:41:40;95352.16;;;7.81;73.85
25420;BME280;13354;48.174;11.566;2023-03-13T00:44:06;95352.69;;;7.77;73.59
25420;BME280;13354;48.174;11.566;2023-03-13T00:46:31;95341.53;;;7.74;73.87
25420;BME280;13354;48.174;11.566;2023-03-13T00:48:56;95334.09;;;7.78;73.50
25420;BME280;13354;48.174;11.566;2023-03-13T00:51:22;95335.53;;;7.81;73.43
25420;BME280;13354;48.174;11.566;2023-03-13T00:53:50;95344.78;;;7.77;73.99
25420;BME280;13354;48.174;11.566;2023-03-13T00:56:17;95331.16;;;7.88;73.54
25420;BME280;13354;48.174;11.566;2023-03-13T00:58:43;95329.81;;;7.92;73.51
25420;BME280;13354;48.174;11.566;2023-03-13T01:01:10;95325.44;;;7.69;73.60
25420;BME280;13354;48.174;11.566;2023-03-13T01:03:36;95340.06;;;7.72;74.14
25420;BME280;13354;48.174;11.566;2023-03-13T01:06:02;95330.09;;;7.67;73.94
25420;BME280;13354;48.174;11.566;2023-03-13T01:08:28;95328.72;;;7.71;73.52
25420;BME280;13354;48.174;11.566;2023-03-13T01:10:57;95327.00;;;7.64;73.79
25420;BME280;13354;48.174;11.566;2023-03-13T01:13:23;95318.44;;;7.62;74.21
25420;BME280;13354;48.174;11.566;2023-03-13T01:15:48;95314.72;;;7.71;73.64
25420;BME280;13354;48.174;11.566;2023-03-13T01:18:13;95312.28;;;7.55;73.86
25420;BME280;13354;48.174;11.566;2023-03-13T01:20:39;95309.13;;;7.44;74.53
25420;BME280;13354;48.174;11.566;2023-03-13T01:23:04;95314.75;;;7.41;74.42
25420;BME280;13354;48.174;11.566;2023-03-13T01:25:30;95311.81;;;7.36;74.40
25420;BME280;13354;48.174;11.566;2023-03-13T01:27:55;95310.66;;;7.39;74.37
25420;BME280;13354;48.174;11.566;2023-03-13T01:30:20;95310.38;;;7.34;74.94
25420;BME280;13354;48.174;11.566;2023-03-13T01:32:45;95305.38;;;7.24;74.71
25420;BME280;13354;48.174;11.566;2023-03-13T01:35:10;95303.00;;;7.14;75.00
25420;BME280;13354;48.174;11.566;2023-03-13T01:37:36;95306.81;;;7.12;75.55
25420;BME280;13354;48.174;11.566;2023-03-13T01:40:01;95307.81;;;7.11;75.48
25420;BME280;13354;48.174;11.566;2023-03-13T01:42:26;95296.75;;;7.15;75.65
25420;BME280;13354;48.174;11.566;2023-03-13T01:44:52;95296.72;;;7.00;75.87
25420;BME280;13354;48.174;11.566;2023-03-13T01:47:18;95304.44;;;7.02;75.89
25420;BME280;13354;48.174;11.566;2023-03-13T01:49:43;95301.88;;;6.94;76.68
25420;BME280;13354;48.174;11.566;2023-03-13T01:52:09;95298.97;;;6.89;76.71
25420;BME280;13354;48.174;11.566;2023-03-13T01:54:41;95296.81;;;6.92;76.98
25420;BME280;13354;48.174;11.566;2023-03-13T01:59:41;95292.09;;;7.02;76.45
25420;BME280;13354;48.174;11.566;2023-03-13T02:02:08;95278.84;;;6.96;76.61
25420;BME280;13354;48.174;11.566;2023-03-13T02:04:40;95276.09;;;6.89;76.70
25420;BME280;13354;48.174;11.566;2023-03-13T02:07:13;95285.09;;;6.95;76.80
25420;BME280;13354;48.174;11.566;2023-03-13T02:09:40;95280.75;;;7.02;76.52
25420;BME280;13354;48.174;11.566;2023-03-13T02:12:08;95278.28;;;6.86;76.62
25420;BME280;13354;48.174;11.566;2023-03-13T02:14:34;95278.34;;;6.77;76.83
25420;BME280;13354;48.174;11.566;2023-03-13T02:17:01;95274.38;;;6.82;76.95
25420;BME280;13354;48.174;11.566;2023-03-13T02:19:29;95274.28;;;6.90;77.04
25420;BME280;13354;48.174;11.566;2023-03-13T02:22:01;95267.75;;;6.86;76.73
25420;BME280;13354;48.174;11.566;2023-03-13T02:24:34;95268.16;;;6.60;77.76
25420;BME280;13354;48.174;11.566;2023-03-13T02:27:02;95269.84;;;6.52;77.96
25420;BME280;13354;48.174;11.566;2023-03-13T02:29:27;95273.41;;;6.60;77.79
25420;BME280;13354;48.174;11.566;2023-03-13T02:31:53;95266.75;;;6.49;77.96
25420;BME280;13354;48.174;11.566;2023-03-13T02:34:19;95271.53;;;6.45;78.42
25420;BME280;13354;48.174;11.566;2023-03-13T02:36:46;95277.69;;;6.38;78.80
25420;BME280;13354;48.174;11.566;2023-03-13T02:39:11;95279.97;;;6.41;78.58
25420;BME280;13354;48.174;11.566;2023-03-13T02:41:38;95275.22;;;6.36;78.97
25420;BME280;13354;48.174;11.566;2023-03-13T02:44:04;95281.53;;;6.50;78.38
25420;BME280;13354;48.174;11.566;2023-03-13T02:46:30;95277.50;;;6.39;78.50
25420;BME280;13354;48.174;11.566;2023-03-13T02:49:15;95278.03;;;6.35;79.18
25420;BME280;13354;48.174;11.566;2023-03-13T02:51:42;95278.63;;;6.45;78.87
25420;BME280;13354;48.174;11.566;2023-03-13T02:54:11;95285.91;;;6.35;79.20
25420;BME280;13354;48.174;11.566;2023-03-13T02:56:38;95286.91;;;6.34;78.93
25420;BME280;13354;48.174;11.566;2023-03-13T02:59:05;95281.53;;;6.50;78.52
25420;BME280;13354;48.174;11.566;2023-03-13T03:01:31;95279.84;;;6.34;79.28
25420;BME280;13354;48.174;11.566;2023-03-13T03:03:56;95281.59;;;6.42;78.91
25420;BME280;13354;48.174;11.566;2023-03-13T03:06:22;95276.53;;;6.55;78.47
25420;BME280;13354;48.174;11.566;2023-03-13T03:08:47;95271.75;;;6.59;78.01
25420;BME280;13354;48.174;11.566;2023-03-13T03:11:12;95268.78;;;6.39;78.16
25420;BME280;13354;48.174;11.566;2023-03-13T03:13:37;95277.38;;;6.33;78.88
25420;BME280;13354;48.174;11.566;2023-03-13T03:16:06;95275.41;;;6.35;78.90
25420;BME280;13354;48.174;11.566;2023-03-13T03:18:32;95280.53;;;6.28;78.55
25420;BME280;13354;48.174;11.566;2023-03-13T03:20:57;95275.63;;;6.48;78.21
25420;BME280;13354;48.174;11.566;2023-03-13T03:23:22;95280.13;;;6.39;78.32
25420;BME280;13354;48.174;11.566;2023-03-13T03:25:47;95281.28;;;6.37;78.41
25420;BME280;13354;48.174;11.566;2023-03-13T03:28:12;95275.22;;;6.36;77.87
25420;BME280;13354;48.174;11.566;2023-03-13T03:30:37;95276.88;;;6.37;77.88
25420;BME280;13354;48.174;11.566;2023-03-13T03:33:03;95282.69;;;6.47;76.86
25420;BME280;13354;48.174;11.566;2023-03-13T03:35:28;95280.44;;;6.44;77.55
25420;BME280;13354;48.174;11.566;2023-03-13T03:37:53;95281.81;;;6.55;77.18
25420;BME280;13354;48.174;11.566;2023-03-13T03:40:18;95274.06;;;6.39;77.59
25420;BME280;13354;48.174;11.566;2023-03-13T03:42:45;95279.91;;;6.26;77.65
25420;BME280;13354;48.174;11.566;2023-03-13T03:45:10;95269.44;;;6.41;77.52
25420;BME280;13354;48.174;11.566;2023-03-13T03:47:35;95267.03;;;6.31;77.25
25420;BME280;13354;48.174;11.566;2023-03-13T03:50:00;95263.06;;;6.35;76.95
25420;BME280;13354;48.174;11.566;2023-03-13T03:52:27;95267.44;;;6.43;76.21
25420;BME280;13354;48.174;11.566;2023-03-13T03:54:52;95266.50;;;6.36;76.38
25420;BME280;13354;48.174;11.566;2023-03-13T03:57:17;95255.72;;;6.31;76.70
25420;BME280;13354;48.174;11.566;2023-03-13T03:59:43;95255.19;;;6.35;76.48
25420;BME280;13354;48.174;11.566;2023-03-13T04:02:08;95255.47;;;6.40;76.22
25420;BME280;13354;48.174;11.566;2023-03-13T04:04:34;95255.84;;;6.37;75.77
25420;BME280;13354;48.174;11.566;2023-03-13T04:06:59;95248.91;;;6.36;75.73
25420;BME280;13354;48.174;11.566;2023-03-13T04:09:24;95251.56;;;6.36;75.76
25420;BME280;13354;48.174;11.566;2023-03-13T04:11:49;95244.72;;;6.27;76.03
25420;BME280;13354;48.174;11.566;2023-03-13T04:14:15;95246.47;;;6.35;76.11
25420;BME280;13354;48.174;11.566;2023-03-13T04:16:40;95237.47;;;6.29;75.86
25420;BME280;13354;48.174;11.566;2023-03-13T04:19:05;95222.97;;;6.33;76.05
25420;BME280;13354;48.174;11.566;2023-03-13T04:21:31;95222.69;;;6.28;76.02
25420;BME280;13354;48.174;11.566;2023-03-13T04:23:57;95225.38;;;6.43;75.47
25420;BME280;13354;48.174;11.566;2023-03-13T04:26:22;95213.41;;;6.40;75.82
25420;BME280;13354;48.174;11.566;2023-03-13T04:28:47;95209.75;;;6.26;76.28
25420;BME280;13354;48.174;11.566;2023-03-13T04:31:12;95203.41;;;6.36;75.93
25420;BME280;13354;48.174;11.566;2023-03-13T04:33:37;95201.66;;;6.28;76.32
25420;BME280;13354;48.174;11.566;2023-03-13T04:36:03;95192.78;;;6.29;76.10
25420;BME280;13354;48.174;11.566;2023-03-13T04:38:28;95193.34;;;6.39;75.52
25420;BME280;13354;48.174;11.566;2023-03-13T04:40:53;95191.28;;;6.35;75.59
25420;BME280;13354;48.174;11.566;2023-03-13T04:43:18;95186.72;;;6.28;75.34
25420;BME280;13354;48.174;11.566;2023-03-13T04:45:44;95181.28;;;6.30;75.65
25420;BME280;13354;48.174;11.566;2023-03-13T04:48:10;95174.38;;;6.29;75.41
25420;BME280;13354;48.174;11.566;2023-03-13T04:50:35;95171.16;;;6.42;74.68
25420;BME280;13354;48.174;11.566;2023-03-13T04:53:00;95162.28;;;6.43;74.13
25420;BME280;13354;48.174;11.566;2023-03-13T04:55:26;95166.59;;;6.36;74.47
25420;BME280;13354;48.174;11.566;2023-03-13T04:57:51;95168.78;;;6.32;74.30
25420;BME280;13354;48.174;11.566;2023-03-13T05:00:16;95161.81;;;6.39;74.08
25420;BME280;13354;48.174;11.566;2023-03-13T05:02:41;95162.47;;;6.56;74.49
25420;BME280;13354;48.174;11.566;2023-03-13T05:05:07;95161.72;;;6.47;73.79
25420;BME280;13354;48.174;11.566;2023-03-13T05:07:32;95167.97;;;6.32;75.09
25420;BME280;13354;48.174;11.566;2023-03-13T05:09:57;95156.66;;;6.46;74.05
25420;BME280;13354;48.174;11.566;2023-03-13T05:12:22;95153.13;;;6.39;73.68
25420;BME280;13354;48.174;11.566;2023-03-13T05:14:47;95152.28;;;6.38;73.69
25420;BME280;13354;48.174;11.566;2023-03-13T05:17:14;95148.97;;;6.44;73.92
25420;BME280;13354;48.174;11.566;2023-03-13T05:19:39;95147.59;;;6.48;73.21
25420;BME280;13354;48.174;11.566;2023-03-13T05:22:04;95142.41;;;6.40;73.37
25420;BME280;13354;48.174;11.566;2023-03-13T05:24:30;95145.94;;;6.47;73.11
25420;BME280;13354;48.174;11.566;2023-03-13T05:26:55;95142.06;;;6.43;73.93
25420;BME280;13354;48.174;11.566;2023-03-13T05:29:20;95134.06;;;6.51;72.81
25420;BME280;13354;48.174;11.566;2023-03-13T05:31:45;95117.31;;;6.52;72.73
25420;BME280;13354;48.174;11.566;2023-03-13T05:34:10;95139.63;;;6.71;72.08
25420;BME280;13354;48.174;11.566;2023-03-13T05:36:36;95129.22;;;6.78;71.57
25420;BME280;13354;48.174;11.566;2023-03-13T05:39:01;95125.31;;;6.74;71.56
25420;BME280;13354;48.174;11.566;2023-03-13T05:41:26;95130.56;;;6.74;71.88
25420;BME280;13354;48.174;11.566;2023-03-13T05:43:52;95113.31;;;6.86;71.11
25420;BME280;13354;48.174;11.566;2023-03-13T05:46:17;95103.41;;;6.88;71.27
25420;BME280;13354;48.174;11.566;2023-03-13T05:48:43;95107.06;;;6.87;70.81
25420;BME280;13354;48.174;11.566;2023-03-13T05:51:09;95095.06;;;6.99;70.82
25420;BME280;13354;48.174;11.566;2023-03-13T05:53:34;95111.41;;;6.95;70.39
25420;BME280;13354;48.174;11.566;2023-03-13T05:55:59;95101.41;;;7.05;70.00
25420;BME280;13354;48.174;11.566;2023-03-13T05:58:25;95105.22;;;7.02;69.76
25420;BME280;13354;48.174;11.566;2023-03-13T06:00:50;95090.88;;;7.05;69.74
25420;BME280;13354;48.174;11.566;2023-03-13T06:03:15;95100.03;;;7.09;69.70
25420;BME280;13354;48.174;11.566;2023-03-13T06:05:40;95101.81;;;7.23;69.19
25420;BME280;13354;48.174;11.566;2023-03-13T06:08:05;95097.00;;;7.27;69.61
25420;BME280;13354;48.174;11.566;2023-03-13T06:10:31;95093.81;;;7.32;68.67
25420;BME280;13354;48.174;11.566;2023-03-13T06:12:56;95088.31;;;7.26;68.83
25420;BME280;13354;48.174;11.566;2023-03-13T06:15:21;95084.09;;;7.32;68.91
25420;BME280;13354;48.174;11.566;2023-03-13T06:17:47;95074.81;;;7.36;67.91
25420;BME280;13354;48.174;11.566;2023-03-13T06:20:12;95070.56;;;7.35;68.31
25420;BME280;13354;48.174;11.566;2023-03-13T06:22:37;95064.69;;;7.33;68.21
25420;BME280;13354;48.174;11.566;2023-03-13T06:25:03;95070.50;;;7.50;68.33
25420;BME280;13354;48.174;11.566;2023-03-13T06:27:29;95063.13;;;7.60;67.74
25420;BME280;13354;48.174;11.566;2023-03-13T06:29:54;95068.44;;;7.67;67.75
25420;BME280;13354;48.174;11.566;2023-03-13T06:32:19;95071.66;;;7.62;68.26
25420;BME280;13354;48.174;11.566;2023-03-13T06:34:44;95071.09;;;7.88;66.39
25420;BME280;13354;48.174;11.566;2023-03-13T06:37:10;95066.34;;;7.84;66.98
25420;BME280;13354;48.174;11.566;2023-03-13T06:39:35;95067.13;;;8.06;65.95
25420;BME280;13354;48.174;11.566;2023-03-13T06:42:00;95071.38;;;8.00;66.34
25420;BME280;13354;48.174;11.566;2023-03-13T06:44:25;95063.69;;;8.05;66.33
25420;BME280;13354;48.174;11.566;2023-03-13T06:46:51;95056.31;;;8.22;66.26
25420;BME280;13354;48.174;11.566;2023-03-13T06:49:16;95057.56;;;8.26;65.68
25420;BME280;13354;48.174;11.566;2023-03-13T06:51:41;95067.63;;;8.37;64.76
25420;BME280;13354;48.174;11.566;2023-03-13T06:54:06;95071.13;;;8.44;64.10
25420;BME280;13354;48.174;11.566;2023-03-13T06:56:32;95065.72;;;8.59;63.80
25420;BME280;13354;48.174;11.566;2023-03-13T06:58:57;95065.88;;;8.51;63.79
25420;BME280;13354;48.174;11.566;2023-03-13T07:01:22;95058.41;;;8.55;63.47
25420;BME280;13354;48.174;11.566;2023-03-13T07:03:47;95063.47;;;8.56;63.59
25420;BME280;13354;48.174;11.566;2023-03-13T07:06:13;95068.16;;;8.61;63.25
25420;BME280;13354;48.174;11.566;2023-03-13T07:08:38;95061.72;;;8.70;62.83
25420;BME280;13354;48.174;11.566;2023-03-13T07:11:04;95061.91;;;8.68;63.29
25420;BME280;13354;48.174;11.566;2023-03-13T07:13:30;95068.31;;;8.87;62.07
25420;BME280;13354;48.174;11.566;2023-03-13T07:15:55;95065.25;;;8.84;62.20
25420;BME280;13354;48.174;11.566;2023-03-13T07:18:23;95058.28;;;8.76;62.72
25420;BME280;13354;48.174;11.566;2023-03-13T07:20:53;95060.16;;;8.82;62.15
25420;BME280;13354;48.174;11.566;2023-03-13T07:23:19;95056.34;;;8.91;61.55
25420;BME280;13354;48.174;11.566;2023-03-13T07:25:45;95055.56;;;9.04;60.39
25420;BME280;13354;48.174;11.566;2023-03-13T07:28:16;95055.56;;;9.04;61.17
25420;BME280;13354;48.174;11.566;2023-03-13T07:30:41;95057.56;;;8.95;61.75
25420;BME280;13354;48.174;11.566;2023-03-13T07:33:06;95057.78;;;9.01;61.11
25420;BME280;13354;48.174;11.566;2023-03-13T07:35:31;95063.31;;;9.06;61.51
25420;BME280;13354;48.174;11.566;2023-03-13T07:37:56;95058.00;;;8.99;61.10
25420;BME280;13354;48.174;11.566;2023-03-13T07:40:21;95049.72;;;9.15;60.38
25420;BME280;13354;48.174;11.566;2023-03-13T07:42:47;95056.25;;;9.26;59.68
25420;BME280;13354;48.174;11.566;2023-03-13T07:45:12;95054.84;;;9.30;60.04
25420;BME280;13354;48.174;11.566;2023-03-13T07:47:37;95055.03;;;9.22;61.73
25420;BME280;13354;48.174;11.566;2023-03-13T07:50:02;95047.28;;;9.14;61.93
25420;BME280;13354;48.174;11.566;2023-03-13T07:52:27;95048.97;;;9.28;61.57
25420;BME280;13354;48.174;11.566;2023-03-13T07:54:53;95054.06;;;9.36;61.18
25420;BME280;13354;48.174;11.566;2023-03-13T07:57:18;95060.34;;;9.42;60.38
25420;BME280;13354;48.174;11.566;2023-03-13T07:59:43;95058.94;;;9.46;59.90
25420;BME280;13354;48.174;11.566;2023-03-13T08:02:10;95058.75;;;9.61;58.82
25420;BME280;13354;48.174;11.566;2023-03-13T08:04:36;95056.94;;;9.68;58.76
25420;BME280;13354;48.174;11.566;2023-03-13T08:07:01;95050.66;;;9.69;59.36
25420;BME280;13354;48.174;11.566;2023-03-13T08:09:26;95043.31;;;9.64;58.86
25420;BME280;13354;48.174;11.566;2023-03-13T08:11:51;95042.75;;;9.76;58.14
25420;BME280;13354;48.174;11.566;2023-03-13T08:14:17;95044.97;;;9.85;57.74
25420;BME280;13354;48.174;11.566;2023-03-13T08:16:42;95038.69;;;9.80;57.58
25420;BME280;13354;48.174;11.566;2023-03-13T08:19:08;95047.22;;;9.88;57.22
25420;BME280;13354;48.174;11.566;2023-03-13T08:21:34;95045.16;;;9.97;57.19
25420;BME280;13354;48.174;11.566;2023-03-13T08:24:01;95041.50;;;10.05;56.30
25420;BME280;13354;48.174;11.566;2023-03-13T08:26:29;95045.81;;;10.06;56.60
25420;BME280;13354;48.174;11.566;2023-03-13T08:28:55;95033.56;;;10.11;56.08
25420;BME280;13354;48.174;11.566;2023-03-13T08:31:22;95048.22;;;10.14;56.90
25420;BME280;13354;48.174;11.566;2023-03-13T08:33:48;95045.19;;;10.30;56.39
25420;BME280;13354;48.174;11.566;2023-03-13T08:36:14;95042.53;;;10.17;57.18
25420;BME280;13354;48.174;11.566;2023-03-13T08:38:41;95043.53;;;10.16;57.73
25420;BME280;13354;48.174;11.566;2023-03-13T08:41:08;95040.09;;;10.09;58.72
25420;BME280;13354;48.174;11.566;2023-03-13T08:43:34;95049.84;;;10.08;58.94
25420;BME280;13354;48.174;11.566;2023-03-13T08:45:59;95046.63;;;10.13;59.17
25420;BME280;13354;48.174;11.566;2023-03-13T08:48:24;95044.59;;;10.35;59.31
25420;BME280;13354;48.174;11.566;2023-03-13T08:51:09;95042.53;;;10.37;59.45
25420;BME280;13354;48.174;11.566;2023-03-13T08:53:34;95039.25;;;10.61;58.93
25420;BME280;13354;48.174;11.566;2023-03-13T08:56:00;95038.59;;;10.73;58.62
25420;BME280;13354;48.174;11.566;2023-03-13T08:58:26;95032.63;;;10.91;58.57
25420;BME280;13354;48.174;11.566;2023-03-13T09:00:51;95038.47;;;11.06;58.40
25420;BME280;13354;48.174;11.566;2023-03-13T09:03:16;95026.16;;;11.25;58.24
25420;BME280;13354;48.174;11.566;2023-03-13T09:05:42;95034.59;;;11.47;57.85
25420;BME280;13354;48.174;11.566;2023-03-13T09:08:07;95030.75;;;11.74;56.80
25420;BME280;13354;48.174;11.566;2023-03-13T09:10:32;95018.03;;;11.90;56.97
25420;BME280;13354;48.174;11.566;2023-03-13T09:12:58;95014.97;;;12.11;56.58
25420;BME280;13354;48.174;11.566;2023-03-13T09:15:23;95018.28;;;12.31;56.15
25420;BME280;13354;48.174;11.566;2023-03-13T09:17:48;95011.31;;;12.37;55.77
25420;BME280;13354;48.174;11.566;2023-03-13T09:20:13;95012.56;;;12.53;56.07
25420;BME280;13354;48.174;11.566;2023-03-13T09:22:39;95023.50;;;12.81;55.66
25420;BME280;13354;48.174;11.566;2023-03-13T09:25:04;95003.53;;;13.09;54.32
25420;BME280;13354;48.174;11.566;2023-03-13T09:27:29;95010.97;;;13.67;53.65
25420;BME280;13354;48.174;11.566;2023-03-13T09:29:54;95000.97;;;14.16;52.13
25420;BME280;13354;48.174;11.566;2023-03-13T09:32:20;95001.09;;;14.57;50.40
25420;BME280;13354;48.174;11.566;2023-03-13T09:34:45;94995.50;;;14.93;49.09
25420;BME280;13354;48.174;11.566;2023-03-13T09:37:11;94988.59;;;15.21;48.75
25420;BME280;13354;48.174;11.566;2023-03-13T09:39:36;94988.34;;;15.22;48.19
25420;BME280;13354;48.174;11.566;2023-03-13T09:42:05;94984.19;;;15.15;48.17
25420;BME280;13354;48.174;11.566;2023-03-13T09:44:51;94981.38;;;15.50;47.62
25420;BME280;13354;48.174;11.566;2023-03-13T09:47:22;94981.28;;;15.45;47.15
25420;BME280;13354;48.174;11.566;2023-03-13T09:52:22;94977.56;;;15.46;47.38
25420;BME280;13354;48.174;11.566;2023-03-13T09:54:49;94967.94;;;15.90;47.25
25420;BME280;13354;48.174;11.566;2023-03-13T09:57:23;94971.66;;;15.73;46.33
25420;BME280;13354;48.174;11.566;2023-03-13T09:59:54;94970.28;;;16.04;45.29
25420;BME280;13354;48.174;11.566;2023-03-13T10:02:26;94957.66;;;16.33;44.55
25420;BME280;13354;48.174;11.566;2023-03-13T10:04:55;94959.25;;;16.34;44.29
25420;BME280;13354;48.174;11.566;2023-03-13T10:07:22;94958.28;;;16.40;44.63
25420;BME280;13354;48.174;11.566;2023-03-13T10:09:47;94947.88;;;16.60;44.81
25420;BME280;13354;48.174;11.566;2023-03-13T10:12:17;94943.00;;;16.74;43.68
25420;BME280;13354;48.174;11.566;2023-03-13T10:14:48;94935.94;;;16.46;44.51
25420;BME280;13354;48.174;11.566;2023-03-13T10:19:58;94938.38;;;16.31;43.65
25420;BME280;13354;48.174;11.566;2023-03-13T10:22:25;94936.13;;;16.39;44.11
25420;BME280;13354;48.174;11.566;2023-03-13T10:24:58;94948.25;;;16.69;44.11
25420;BME280;13354;48.174;11.566;2023-03-13T10:27:24;94944.56;;;16.31;44.51
25420;BME280;13354;48.174;11.566;2023-03-13T10:29:49;94936.31;;;16.55;43.96
25420;BME280;13354;48.174;11.566;2023-03-13T10:32:15;94944.91;;;17.01;44.10
25420;BME280;13354;48.174;11.566;2023-03-13T10:37:10;94926.59;;;17.36;43.32
25420;BME280;13354;48.174;11.566;2023-03-13T10:39:36;94928.19;;;17.10;43.78
25420;BME280;13354;48.174;11.566;2023-03-13T10:42:15;94922.50;;;17.02;43.91
25420;BME280;13354;48.174;11.566;2023-03-13T10:44:42;94915.16;;;16.92;44.67
25420;BME280;13354;48.174;11.566;2023-03-13T10:47:08;94911.50;;;16.59;45.02
25420;BME280;13354;48.174;11.566;2023-03-13T10:49:36;94906.19;;;16.59;45.49
25420;BME280;13354;48.174;11.566;2023-03-13T10:52:11;94908.72;;;16.49;45.71
25420;BME280;13354;48.174;11.566;2023-03-13T10:54:51;94908.03;;;16.59;46.41
25420;BME280;13354;48.174;11.566;2023-03-13T10:57:25;94900.41;;;16.89;45.24
25420;BME280;13354;48.174;11.566;2023-03-13T10:59:51;94903.78;;;17.02;45.28
25420;BME280;13354;48.174;11.566;2023-03-13T11:04:57;94892.03;;;17.62;44.56
25420;BME280;13354;48.174;11.566;2023-03-13T11:09:58;94898.97;;;17.58;44.78
25420;BME280;13354;48.174;11.566;2023-03-13T11:12:24;94885.88;;;17.61;44.58
25420;BME280;13354;48.174;11.566;2023-03-13T11:15:00;94877.09;;;17.98;43.88
25420;BME280;13354;48.174;11.566;2023-03-13T11:17:33;94884.69;;;18.17;43.90
25420;BME280;13354;48.174;11.566;2023-03-13T11:27:50;94867.44;;;18.45;44.67
25420;BME280;13354;48.174;11.566;2023-03-13T11:33:04;94858.00;;;18.90;44.41
25420;BME280;13354;48.174;11.566;2023-03-13T11:37:59;94845.75;;;19.45;43.96
25420;BME280;13354;48.174;11.566;2023-03-13T11:40:37;94843.84;;;19.35;44.29
25420;BME280;13354;48.174;11.566;2023-03-13T11:43:17;94832.06;;;19.41;43.95
25420;BME280;13354;48.174;11.566;2023-03-13T11:45:49;94833.66;;;19.32;44.97
25420;BME280;13354;48.174;11.566;2023-03-13T11:51:00;94850.09;;;19.66;43.96
25420;BME280;13354;48.174;11.566;2023-03-13T12:01:16;94820.50;;;19.87;43.51
25420;BME280;13354;48.174;11.566;2023-03-13T12:06:18;94828.75;;;20.26;42.03
25420;BME280;13354;48.174;11.566;2023-03-13T12:08:47;94806.25;;;20.01;42.01
25420;BME280;13354;48.174;11.566;2023-03-13T12:11:21;94807.56;;;20.09;42.67
25420;BME280;13354;48.174;11.566;2023-03-13T12:13:49;94797.34;;;20.06;42.08
25420;BME280;13354;48.174;11.566;2023-03-13T12:16:19;94808.91;;;20.12;42.17
25420;BME280;13354;48.174;11.566;2023-03-13T12:18:45;94802.81;;;19.70;42.52
25420;BME280;13354;48.174;11.566;2023-03-13T12:26:34;94794.75;;;19.60;43.42
25420;BME280;13354;48.174;11.566;2023-03-13T12:29:17;94796.88;;;19.73;42.92
25420;BME280;13354;48.174;11.566;2023-03-13T12:31:49;94787.47;;;19.61;42.57
25420;BME280;13354;48.174;11.566;2023-03-13T12:34:19;94777.56;;;19.46;42.89
25420;BME280;13354;48.174;11.566;2023-03-13T12:37:08;94771.13;;;19.62;42.70
25420;BME280;13354;48.174;11.566;2023-03-13T12:39:44;94771.38;;;19.66;42.57
25420;BME280;13354;48.174;11.566;2023-03-13T12:42:22;94770.84;;;19.69;42.17
25420;BME280;13354;48.174;11.566;2023-03-13T12:44:50;94771.63;;;19.79;42.63
25420;BME280;13354;48.174;11.566;2023-03-13T12:47:24;94762.47;;;19.91;41.61
25420;BME280;13354;48.174;11.566;2023-03-13T12:50:00;94761.47;;;20.57;41.39
25420;BME280;13354;48.174;11.566;2023-03-13T13:00:14;94743.13;;;20.04;42.79
25420;BME280;13354;48.174;11.566;2023-03-13T13:02:40;94734.91;;;20.35;42.11
25420;BME280;13354;48.174;11.566;2023-03-13T13:05:16;94729.19;;;20.57;41.56
25420;BME280;13354;48.174;11.566;2023-03-13T13:07:44;94720.75;;;20.14;41.66
25420;BME280;13354;48.174;11.566;2023-03-13T13:10:17;94716.31;;;19.89;42.57
25420;BME280;13354;48.174;11.566;2023-03-13T13:12:45;94717.41;;;20.42;42.28
25420;BME280;13354;48.174;11.566;2023-03-13T13:15:26;94705.00;;;20.96;41.29
25420;BME280;13354;48.174;11.566;2023-03-13T13:17:54;94705.09;;;21.49;40.12
25420;BME280;13354;48.174;11.566;2023-03-13T13:20:42;94691.44;;;21.93;39.81
25420;BME280;13354;48.174;11.566;2023-03-13T13:23:23;94696.09;;;21.88;39.59
25420;BME280;13354;48.174;11.566;2023-03-13T13:25:49;94704.44;;;21.33;40.08
25420;BME280;13354;48.174;11.566;2023-03-13T13:30:46;94684.94;;;20.28;41.77
25420;BME280;13354;48.174;11.566;2023-03-13T13:35:42;94686.50;;;20.40;42.49
25420;BME280;13354;48.174;11.566;2023-03-13T13:43:28;94680.00;;;20.95;41.32
25420;BME280;13354;48.174;11.566;2023-03-13T13:45:56;94677.72;;;21.08;41.30
25420;BME280;13354;48.174;11.566;2023-03-13T13:48:27;94656.84;;;21.23;40.84
25420;BME280;13354;48.174;11.566;2023-03-13T13:53:48;94646.72;;;21.44;40.56
25420;BME280;13354;48.174;11.566;2023-03-13T13:58:59;94632.22;;;21.40;40.65
25420;BME280;13354;48.174;11.566;2023-03-13T14:01:25;94634.22;;;21.54;40.49
25420;BME280;13354;48.174;11.566;2023-03-13T14:03:52;94619.75;;;21.50;40.81
25420;BME280;13354;48.174;11.566;2023-03-13T14:06:27;94618.84;;;21.59;40.94